sensor_id;sensor_type;location;lat;lon;timestamp;pressure;altitude;pressure_sealevel;temperature;humidity
7105;BME280;3594;42.152;24.714;2023-01-29T00:01:06;-23911.69;;;3.42;100.00
7105;BME280;3594;42.152;24.714;2023-01-29T00:03:33;-23912.56;;;3.45;100.00
7105;BME280;3594;42.152;24.714;2023-01-29T00:05:59;-23910.13;;;3.36;100.00
7105;BME280;3594;42.152;24.714;2023-01-29T00:08:25;-23913.69;;;3.49;100.00
7105;BME280;3594;42.152;24.714;2023-01-29T00:10:51;-23903.00;;;3.11;100.00
7105;BME280;3594;42.152;24.714;2023-01-29T00:13:16;-23899.88;;;3.00;100.00
7105;BME280;3594;42.152;24.714;2023-01-29T00:15:42;-23894.00;;;2.79;100.00
7105;BME280;3594;42.152;24.714;2023-01-29T00:18:17;-23907.00;;;3.25;100.00
7105;BME280;3594;42.152;24.714;2023-01-29T00:20:42;-23905.56;;;3.20;100.00
7105;BME280;3594;42.152;24.714;2023-01-29T00:23:08;-23897.72;;;2.92;100.00
7105;BME280;3594;42.152;24.714;2023-01-29T00:25:33;-23912.13;;;3.43;100.00
7105;BME280;3594;42.152;24.714;2023-01-29T00:27:59;-23898.44;;;2.95;100.00
7105;BME280;3594;42.152;24.714;2023-01-29T00:30:24;-23907.28;;;3.26;100.00
7105;BME280;3594;42.152;24.714;2023-01-29T00:32:49;-23910.97;;;3.39;100.00
7105;BME280;3594;42.152;24.714;2023-01-29T00:35:15;-23909.41;;;3.34;100.00
7105;BME280;3594;42.152;24.714;2023-01-29T00:37:40;-23907.72;;;3.28;100.00
7105;BME280;3594;42.152;24.714;2023-01-29T00:40:06;-23893.88;;;2.79;100.00
7105;BME280;3594;42.152;24.714;2023-01-29T00:42:31;-23906.44;;;3.23;100.00
7105;BME280;3594;42.152;24.714;2023-01-29T00:45:15;-23900.28;;;3.01;100.00
7105;BME280;3594;42.152;24.714;2023-01-29T00:47:41;-23909.00;;;3.32;100.00
7105;BME280;3594;42.152;24.714;2023-01-29T00:50:10;-23904.28;;;3.16;100.00
7105;BME280;3594;42.152;24.714;2023-01-29T00:52:36;-23898.72;;;2.96;100.00
7105;BME280;3594;42.152;24.714;2023-01-29T00:55:03;-23903.84;;;3.14;100.00
7105;BME280;3594;42.152;24.714;2023-01-29T00:57:30;-23910.00;;;3.36;100.00
7105;BME280;3594;42.152;24.714;2023-01-29T00:59:56;-23895.16;;;2.83;100.00
7105;BME280;3594;42.152;24.714;2023-01-29T01:02:22;-23906.13;;;3.22;100.00
7105;BME280;3594;42.152;24.714;2023-01-29T01:05:08;-23899.16;;;2.97;100.00
7105;BME280;3594;42.152;24.714;2023-01-29T01:07:39;-23900.88;;;3.03;100.00
7105;BME280;3594;42.152;24.714;2023-01-29T01:10:05;-23907.72;;;3.28;100.00
7105;BME280;3594;42.152;24.714;2023-01-29T01:15:16;-23895.72;;;2.85;100.00
7105;BME280;3594;42.152;24.714;2023-01-29T01:17:42;-23902.84;;;3.10;100.00
7105;BME280;3594;42.152;24.714;2023-01-29T01:20:08;-23894.72;;;2.82;100.00
7105;BME280;3594;42.152;24.714;2023-01-29T01:22:34;-23902.56;;;3.09;100.00
7105;BME280;3594;42.152;24.714;2023-01-29T01:25:00;-23904.28;;;3.16;100.00
7105;BME280;3594;42.152;24.714;2023-01-29T01:27:25;-23905.28;;;3.19;100.00
7105;BME280;3594;42.152;24.714;2023-01-29T01:29:51;-23899.00;;;2.97;100.00
7105;BME280;3594;42.152;24.714;2023-01-29T01:32:16;-23896.72;;;2.89;100.00
7105;BME280;3594;42.152;24.714;2023-01-29T01:34:41;-23908.13;;;3.29;100.00
7105;BME280;3594;42.152;24.714;2023-01-29T01:37:09;-23898.28;;;2.94;100.00
7105;BME280;3594;42.152;24.714;2023-01-29T01:39:34;-23908.84;;;3.32;100.00
7105;BME280;3594;42.152;24.714;2023-01-29T01:41:59;-23894.44;;;2.81;100.00
7105;BME280;3594;42.152;24.714;2023-01-29T01:44:54;-23907.28;;;3.26;100.00
7105;BME280;3594;42.152;24.714;2023-01-29T01:47:25;-23898.72;;;2.96;100.00
7105;BME280;3594;42.152;24.714;2023-01-29T01:49:53;-23909.69;;;3.35;100.00
7105;BME280;3594;42.152;24.714;2023-01-29T01:52:19;-23904.44;;;3.16;100.00
7105;BME280;3594;42.152;24.714;2023-01-29T01:54:45;-23904.00;;;3.15;100.00
7105;BME280;3594;42.152;24.714;2023-01-29T01:57:16;-23894.44;;;2.81;100.00
7105;BME280;3594;42.152;24.714;2023-01-29T01:59:47;-23905.56;;;3.20;100.00
7105;BME280;3594;42.152;24.714;2023-01-29T02:02:15;-23898.59;;;2.95;100.00
7105;BME280;3594;42.152;24.714;2023-01-29T02:04:59;-23899.00;;;2.97;100.00
7105;BME280;3594;42.152;24.714;2023-01-29T02:07:46;-23904.13;;;3.15;100.00
7105;BME280;3594;42.152;24.714;2023-01-29T02:10:37;-23915.53;;;3.55;100.00
7105;BME280;3594;42.152;24.714;2023-01-29T02:13:05;-23909.69;;;3.35;100.00
7105;BME280;3594;42.152;24.714;2023-01-29T02:15:31;-23901.28;;;3.05;100.00
7105;BME280;3594;42.152;24.714;2023-01-29T02:17:57;-23909.56;;;3.34;100.00
7105;BME280;3594;42.152;24.714;2023-01-29T02:20:26;-23904.72;;;3.17;100.00
7105;BME280;3594;42.152;24.714;2023-01-29T02:25:54;-23901.72;;;3.06;100.00
7105;BME280;3594;42.152;24.714;2023-01-29T02:28:55;-23917.81;;;3.64;100.00
7105;BME280;3594;42.152;24.714;2023-01-29T02:31:51;-23913.69;;;3.49;100.00
7105;BME280;3594;42.152;24.714;2023-01-29T02:38:00;-23912.69;;;3.45;100.00
7105;BME280;3594;42.152;24.714;2023-01-29T02:40:42;-23912.69;;;3.45;100.00
7105;BME280;3594;42.152;24.714;2023-01-29T02:45:55;-23916.41;;;3.59;100.00
7105;BME280;3594;42.152;24.714;2023-01-29T02:48:28;-23914.69;;;3.52;100.00
7105;BME280;3594;42.152;24.714;2023-01-29T02:51:03;-23912.84;;;3.46;100.00
7105;BME280;3594;42.152;24.714;2023-01-29T02:54:02;-23913.25;;;3.47;100.00
7105;BME280;3594;42.152;24.714;2023-01-29T02:56:53;-23911.84;;;3.42;100.00
7105;BME280;3594;42.152;24.714;2023-01-29T02:59:29;-23915.53;;;3.55;100.00
7105;BME280;3594;42.152;24.714;2023-01-29T03:02:12;-23909.41;;;3.34;100.00
7105;BME280;3594;42.152;24.714;2023-01-29T03:04:45;-23902.72;;;3.10;100.00
7105;BME280;3594;42.152;24.714;2023-01-29T03:07:19;-23899.00;;;2.97;100.00
7105;BME280;3594;42.152;24.714;2023-01-29T03:10:11;-23909.84;;;3.35;100.00
7105;BME280;3594;42.152;24.714;2023-01-29T03:12:40;-23905.00;;;3.18;100.00
7105;BME280;3594;42.152;24.714;2023-01-29T03:15:13;-23901.44;;;3.05;100.00
7105;BME280;3594;42.152;24.714;2023-01-29T03:20:21;-23905.41;;;3.20;100.00
7105;BME280;3594;42.152;24.714;2023-01-29T03:22:53;-23909.00;;;3.32;100.00
7105;BME280;3594;42.152;24.714;2023-01-29T03:25:21;-23910.97;;;3.39;100.00
7105;BME280;3594;42.152;24.714;2023-01-29T03:28:08;-23904.72;;;3.17;100.00
7105;BME280;3594;42.152;24.714;2023-01-29T03:30:59;-23902.00;;;3.07;100.00
7105;BME280;3594;42.152;24.714;2023-01-29T03:33:52;-23900.16;;;3.01;100.00
7105;BME280;3594;42.152;24.714;2023-01-29T03:36:28;-23902.00;;;3.07;100.00
7105;BME280;3594;42.152;24.714;2023-01-29T03:39:06;-23909.13;;;3.33;100.00
7105;BME280;3594;42.152;24.714;2023-01-29T03:41:35;-23911.41;;;3.41;100.00
7105;BME280;3594;42.152;24.714;2023-01-29T03:44:13;-23908.13;;;3.29;100.00
7105;BME280;3594;42.152;24.714;2023-01-29T03:47:19;-23907.84;;;3.28;100.00
7105;BME280;3594;42.152;24.714;2023-01-29T03:49:56;-23907.72;;;3.28;100.00
7105;BME280;3594;42.152;24.714;2023-01-29T03:57:47;-23910.84;;;3.39;100.00
7105;BME280;3594;42.152;24.714;2023-01-29T04:00:40;-23896.72;;;2.89;100.00
7105;BME280;3594;42.152;24.714;2023-01-29T04:03:13;-23908.72;;;3.31;100.00
7105;BME280;3594;42.152;24.714;2023-01-29T04:05:49;-23906.13;;;3.22;100.00
7105;BME280;3594;42.152;24.714;2023-01-29T04:08:23;-23893.00;;;2.76;100.00
7105;BME280;3594;42.152;24.714;2023-01-29T04:10:51;-23904.84;;;3.18;100.00
7105;BME280;3594;42.152;24.714;2023-01-29T04:13:20;-23898.16;;;2.94;100.00
7105;BME280;3594;42.152;24.714;2023-01-29T04:15:49;-23897.00;;;2.90;100.00
7105;BME280;3594;42.152;24.714;2023-01-29T04:18:17;-23908.13;;;3.29;100.00
7105;BME280;3594;42.152;24.714;2023-01-29T04:20:42;-23895.28;;;2.84;100.00
7105;BME280;3594;42.152;24.714;2023-01-29T04:23:23;-23906.56;;;3.24;100.00
7105;BME280;3594;42.152;24.714;2023-01-29T04:31:12;-23893.16;;;2.76;100.00
7105;BME280;3594;42.152;24.714;2023-01-29T04:33:59;-23905.41;;;3.20;100.00
7105;BME280;3594;42.152;24.714;2023-01-29T04:39:12;-23904.72;;;3.17;100.00
7105;BME280;3594;42.152;24.714;2023-01-29T04:41:51;-23899.88;;;3.00;100.00
7105;BME280;3594;42.152;24.714;2023-01-29T04:50:00;-23905.28;;;3.19;100.00
7105;BME280;3594;42.152;24.714;2023-01-29T04:58:42;-23891.59;;;2.71;100.00
7105;BME280;3594;42.152;24.714;2023-01-29T05:01:13;-23886.16;;;2.51;100.00
7105;BME280;3594;42.152;24.714;2023-01-29T05:03:44;-23883.31;;;2.41;100.00
7105;BME280;3594;42.152;24.714;2023-01-29T05:06:11;-23899.88;;;3.00;100.00
7105;BME280;3594;42.152;24.714;2023-01-29T05:08:39;-23896.44;;;2.88;100.00
7105;BME280;3594;42.152;24.714;2023-01-29T05:11:05;-23897.72;;;2.92;100.00
7105;BME280;3594;42.152;24.714;2023-01-29T05:13:33;-23885.31;;;2.48;100.00
7105;BME280;3594;42.152;24.714;2023-01-29T05:16:08;-23892.31;;;2.73;100.00
7105;BME280;3594;42.152;24.714;2023-01-29T05:18:37;-23903.56;;;3.13;100.00
7105;BME280;3594;42.152;24.714;2023-01-29T05:21:04;-23896.44;;;2.88;100.00
7105;BME280;3594;42.152;24.714;2023-01-29T05:23:31;-23897.72;;;2.92;100.00
7105;BME280;3594;42.152;24.714;2023-01-29T05:25:56;-23894.16;;;2.80;100.00
7105;BME280;3594;42.152;24.714;2023-01-29T05:28:22;-23882.75;;;2.39;100.00
7105;BME280;3594;42.152;24.714;2023-01-29T05:30:53;-23886.88;;;2.54;100.00
7105;BME280;3594;42.152;24.714;2023-01-29T05:33:25;-23891.88;;;2.72;100.00
7105;BME280;3594;42.152;24.714;2023-01-29T05:35:51;-23891.16;;;2.69;100.00
7105;BME280;3594;42.152;24.714;2023-01-29T05:38:18;-23892.44;;;2.74;100.00
7105;BME280;3594;42.152;24.714;2023-01-29T05:40:43;-23894.88;;;2.82;100.00
7105;BME280;3594;42.152;24.714;2023-01-29T05:43:20;-23889.31;;;2.62;100.00
7105;BME280;3594;42.152;24.714;2023-01-29T05:48:17;-23900.72;;;3.03;100.00
7105;BME280;3594;42.152;24.714;2023-01-29T05:50:43;-23890.72;;;2.67;100.00
7105;BME280;3594;42.152;24.714;2023-01-29T05:53:08;-23883.31;;;2.41;100.00
7105;BME280;3594;42.152;24.714;2023-01-29T05:55:34;-23898.44;;;2.95;100.00
7105;BME280;3594;42.152;24.714;2023-01-29T05:58:02;-23901.84;;;3.07;100.00
7105;BME280;3594;42.152;24.714;2023-01-29T06:00:28;-23889.03;;;2.61;100.00
7105;BME280;3594;42.152;24.714;2023-01-29T06:02:53;-23894.72;;;2.82;100.00
7105;BME280;3594;42.152;24.714;2023-01-29T06:05:19;-23900.88;;;3.03;100.00
7105;BME280;3594;42.152;24.714;2023-01-29T06:07:44;-23901.44;;;3.05;100.00
7105;BME280;3594;42.152;24.714;2023-01-29T06:10:12;-23898.72;;;2.96;100.00
7105;BME280;3594;42.152;24.714;2023-01-29T06:12:39;-23907.28;;;3.26;100.00
7105;BME280;3594;42.152;24.714;2023-01-29T06:15:04;-23902.00;;;3.07;100.00
7105;BME280;3594;42.152;24.714;2023-01-29T06:17:30;-23907.28;;;3.26;100.00
7105;BME280;3594;42.152;24.714;2023-01-29T06:19:55;-23900.16;;;3.01;100.00
7105;BME280;3594;42.152;24.714;2023-01-29T06:22:20;-23902.72;;;3.10;100.00
7105;BME280;3594;42.152;24.714;2023-01-29T06:24:46;-23907.84;;;3.28;100.00
7105;BME280;3594;42.152;24.714;2023-01-29T06:27:11;-23895.28;;;2.84;100.00
7105;BME280;3594;42.152;24.714;2023-01-29T06:29:37;-23908.00;;;3.29;100.00
7105;BME280;3594;42.152;24.714;2023-01-29T06:32:02;-23901.84;;;3.07;100.00
7105;BME280;3594;42.152;24.714;2023-01-29T06:34:27;-23902.84;;;3.10;100.00
7105;BME280;3594;42.152;24.714;2023-01-29T06:36:53;-23915.53;;;3.55;100.00
7105;BME280;3594;42.152;24.714;2023-01-29T06:39:18;-23904.84;;;3.18;100.00
7105;BME280;3594;42.152;24.714;2023-01-29T06:41:44;-23917.53;;;3.63;100.00
7105;BME280;3594;42.152;24.714;2023-01-29T06:44:10;-23910.69;;;3.38;100.00
7105;BME280;3594;42.152;24.714;2023-01-29T06:46:35;-23913.13;;;3.47;100.00
7105;BME280;3594;42.152;24.714;2023-01-29T06:49:01;-23913.97;;;3.50;100.00
7105;BME280;3594;42.152;24.714;2023-01-29T06:51:26;-23925.38;;;3.90;100.00
7105;BME280;3594;42.152;24.714;2023-01-29T06:53:52;-23921.69;;;3.77;100.00
7105;BME280;3594;42.152;24.714;2023-01-29T06:56:20;-23924.09;;;3.86;100.00
7105;BME280;3594;42.152;24.714;2023-01-29T06:58:46;-23914.13;;;3.50;100.00
7105;BME280;3594;42.152;24.714;2023-01-29T07:01:12;-23917.81;;;3.64;100.00
7105;BME280;3594;42.152;24.714;2023-01-29T07:03:37;-23906.44;;;3.23;100.00
7105;BME280;3594;42.152;24.714;2023-01-29T07:06:04;-23910.56;;;3.38;100.00
7105;BME280;3594;42.152;24.714;2023-01-29T07:08:30;-23923.25;;;3.83;100.00
7105;BME280;3594;42.152;24.714;2023-01-29T07:10:59;-23924.66;;;3.88;100.00
7105;BME280;3594;42.152;24.714;2023-01-29T07:13:25;-23926.53;;;3.94;100.00
7105;BME280;3594;42.152;24.714;2023-01-29T07:15:51;-23889.88;;;2.64;100.00
7105;BME280;3594;42.152;24.714;2023-01-29T07:18:16;-23916.69;;;3.60;100.00
7105;BME280;3594;42.152;24.714;2023-01-29T07:20:42;-23905.41;;;3.20;100.00
7105;BME280;3594;42.152;24.714;2023-01-29T07:23:13;-23922.53;;;3.80;100.00
7105;BME280;3594;42.152;24.714;2023-01-29T07:25:39;-23931.22;;;4.11;100.00
7105;BME280;3594;42.152;24.714;2023-01-29T07:28:05;-23923.94;;;3.85;100.00
7105;BME280;3594;42.152;24.714;2023-01-29T07:30:32;-23925.81;;;3.92;100.00
7105;BME280;3594;42.152;24.714;2023-01-29T07:33:05;-23932.63;;;4.16;100.00
7105;BME280;3594;42.152;24.714;2023-01-29T07:35:31;-23935.34;;;4.26;100.00
7105;BME280;3594;42.152;24.714;2023-01-29T07:37:57;-23925.53;;;3.91;100.00
7105;BME280;3594;42.152;24.714;2023-01-29T07:40:22;-23930.22;;;4.08;100.00
7105;BME280;3594;42.152;24.714;2023-01-29T07:42:47;-23935.50;;;4.26;100.00
7105;BME280;3594;42.152;24.714;2023-01-29T07:45:13;-23937.78;;;4.34;100.00
7105;BME280;3594;42.152;24.714;2023-01-29T07:47:38;-23941.19;;;4.47;100.00
7105;BME280;3594;42.152;24.714;2023-01-29T07:50:04;-23935.78;;;4.27;100.00
7105;BME280;3594;42.152;24.714;2023-01-29T07:52:31;-23940.91;;;4.45;100.00
7105;BME280;3594;42.152;24.714;2023-01-29T07:54:57;-23940.03;;;4.42;100.00
7105;BME280;3594;42.152;24.714;2023-01-29T07:57:23;-23946.31;;;4.65;100.00
7105;BME280;3594;42.152;24.714;2023-01-29T07:59:48;-23937.06;;;4.32;100.00
7105;BME280;3594;42.152;24.714;2023-01-29T08:02:13;-23949.72;;;4.77;100.00
7105;BME280;3594;42.152;24.714;2023-01-29T08:04:39;-23939.34;;;4.40;100.00
7105;BME280;3594;42.152;24.714;2023-01-29T08:07:04;-23926.09;;;3.93;100.00
7105;BME280;3594;42.152;24.714;2023-01-29T08:09:30;-23931.50;;;4.12;100.00
7105;BME280;3594;42.152;24.714;2023-01-29T08:11:56;-23937.78;;;4.34;100.00
7105;BME280;3594;42.152;24.714;2023-01-29T08:14:22;-23925.22;;;3.90;100.00
7105;BME280;3594;42.152;24.714;2023-01-29T08:16:48;-23929.94;;;4.07;100.00
7105;BME280;3594;42.152;24.714;2023-01-29T08:19:13;-23928.94;;;4.03;100.00
7105;BME280;3594;42.152;24.714;2023-01-29T08:21:39;-23933.78;;;4.20;100.00
7105;BME280;3594;42.152;24.714;2023-01-29T08:24:04;-23946.59;;;4.66;100.00
7105;BME280;3594;42.152;24.714;2023-01-29T08:26:30;-23950.84;;;4.81;100.00
7105;BME280;3594;42.152;24.714;2023-01-29T08:28:55;-23951.84;;;4.84;100.00
7105;BME280;3594;42.152;24.714;2023-01-29T08:31:21;-23947.16;;;4.68;100.00
7105;BME280;3594;42.152;24.714;2023-01-29T08:33:46;-23952.28;;;4.86;100.00
7105;BME280;3594;42.152;24.714;2023-01-29T08:36:12;-23940.63;;;4.44;100.00
7105;BME280;3594;42.152;24.714;2023-01-29T08:38:37;-23937.47;;;4.33;100.00
7105;BME280;3594;42.152;24.714;2023-01-29T08:41:03;-23947.16;;;4.68;100.00
7105;BME280;3594;42.152;24.714;2023-01-29T08:43:29;-23928.09;;;4.00;100.00
7105;BME280;3594;42.152;24.714;2023-01-29T08:45:55;-23950.72;;;4.80;100.00
7105;BME280;3594;42.152;24.714;2023-01-29T08:48:20;-23940.19;;;4.43;100.00
7105;BME280;3594;42.152;24.714;2023-01-29T08:50:45;-23945.75;;;4.63;100.00
7105;BME280;3594;42.152;24.714;2023-01-29T08:53:11;-23947.44;;;4.69;100.00
7105;BME280;3594;42.152;24.714;2023-01-29T08:55:39;-23948.31;;;4.72;100.00
7105;BME280;3594;42.152;24.714;2023-01-29T08:58:09;-23938.19;;;4.36;100.00
7105;BME280;3594;42.152;24.714;2023-01-29T09:00:36;-23946.03;;;4.64;100.00
7105;BME280;3594;42.152;24.714;2023-01-29T09:03:01;-23935.78;;;4.27;100.00
7105;BME280;3594;42.152;24.714;2023-01-29T09:05:28;-23945.16;;;4.61;100.00
7105;BME280;3594;42.152;24.714;2023-01-29T09:07:55;-23957.97;;;5.06;100.00
7105;BME280;3594;42.152;24.714;2023-01-29T09:10:21;-23958.13;;;5.07;100.00
7105;BME280;3594;42.152;24.714;2023-01-29T09:12:46;-23955.00;;;4.96;100.00
7105;BME280;3594;42.152;24.714;2023-01-29T09:15:11;-23952.84;;;4.88;100.00
7105;BME280;3594;42.152;24.714;2023-01-29T09:17:37;-23953.72;;;4.91;100.00
7105;BME280;3594;42.152;24.714;2023-01-29T09:20:03;-23948.88;;;4.74;100.00
7105;BME280;3594;42.152;24.714;2023-01-29T09:22:31;-23961.97;;;5.20;100.00
7105;BME280;3594;42.152;24.714;2023-01-29T09:24:56;-23965.78;;;5.34;100.00
7105;BME280;3594;42.152;24.714;2023-01-29T09:27:22;-23960.25;;;5.14;100.00
7105;BME280;3594;42.152;24.714;2023-01-29T09:29:47;-23968.63;;;5.44;100.00
7105;BME280;3594;42.152;24.714;2023-01-29T09:32:12;-23966.94;;;5.38;100.00
7105;BME280;3594;42.152;24.714;2023-01-29T09:34:38;-23955.56;;;4.98;100.00
7105;BME280;3594;42.152;24.714;2023-01-29T09:37:03;-23963.38;;;5.25;100.00
7105;BME280;3594;42.152;24.714;2023-01-29T09:39:29;-23969.63;;;5.48;100.00
7105;BME280;3594;42.152;24.714;2023-01-29T09:47:19;-23962.09;;;5.21;100.00
7105;BME280;3594;42.152;24.714;2023-01-29T09:50:21;-23975.88;;;5.70;100.00
7105;BME280;3594;42.152;24.714;2023-01-29T09:52:58;-23976.16;;;5.71;100.00
7105;BME280;3594;42.152;24.714;2023-01-29T09:55:27;-23966.22;;;5.36;100.00
7105;BME280;3594;42.152;24.714;2023-01-29T09:58:11;-23981.16;;;5.89;100.00
7105;BME280;3594;42.152;24.714;2023-01-29T10:06:14;-23976.59;;;5.72;100.00
7105;BME280;3594;42.152;24.714;2023-01-29T10:09:23;-23990.66;;;6.22;100.00
7105;BME280;3594;42.152;24.714;2023-01-29T10:15:02;-23990.38;;;6.21;100.00
7105;BME280;3594;42.152;24.714;2023-01-29T10:25:19;-23974.75;;;5.66;100.00
7105;BME280;3594;42.152;24.714;2023-01-29T10:27:49;-23981.44;;;5.90;100.00
7105;BME280;3594;42.152;24.714;2023-01-29T10:30:37;-23988.69;;;6.15;100.00
7105;BME280;3594;42.152;24.714;2023-01-29T10:33:05;-23990.94;;;6.24;100.00
7105;BME280;3594;42.152;24.714;2023-01-29T10:35:53;-23981.00;;;5.88;100.00
7105;BME280;3594;42.152;24.714;2023-01-29T10:51:42;-23997.47;;;6.47;100.00
7105;BME280;3594;42.152;24.714;2023-01-29T11:00:21;-23989.25;;;6.17;100.00
7105;BME280;3594;42.152;24.714;2023-01-29T11:02:49;-23991.53;;;6.26;100.00
7105;BME280;3594;42.152;24.714;2023-01-29T11:05:24;-23992.66;;;6.30;100.00
7105;BME280;3594;42.152;24.714;2023-01-29T11:08:00;-23990.94;;;6.24;100.00
7105;BME280;3594;42.152;24.714;2023-01-29T11:10:28;-23982.28;;;5.93;100.00
7105;BME280;3594;42.152;24.714;2023-01-29T11:12:55;-23986.41;;;6.07;100.00
7105;BME280;3594;42.152;24.714;2023-01-29T11:15:25;-23999.47;;;6.54;100.00
7105;BME280;3594;42.152;24.714;2023-01-29T11:18:04;-23994.66;;;6.37;100.00
7105;BME280;3594;42.152;24.714;2023-01-29T11:20:32;-23993.66;;;6.33;100.00
7105;BME280;3594;42.152;24.714;2023-01-29T11:22:58;-23998.34;;;6.50;100.00
7105;BME280;3594;42.152;24.714;2023-01-29T11:25:24;-23996.22;;;6.42;100.00
7105;BME280;3594;42.152;24.714;2023-01-29T11:27:54;-23999.75;;;6.55;100.00
7105;BME280;3594;42.152;24.714;2023-01-29T11:33:05;-24004.00;;;6.70;100.00
7105;BME280;3594;42.152;24.714;2023-01-29T11:35:33;-23996.22;;;6.42;100.00
7105;BME280;3594;42.152;24.714;2023-01-29T11:38:28;-24007.28;;;6.82;100.00
7105;BME280;3594;42.152;24.714;2023-01-29T11:41:13;-24009.13;;;6.88;100.00
7105;BME280;3594;42.152;24.714;2023-01-29T11:43:40;-24008.84;;;6.87;100.00
7105;BME280;3594;42.152;24.714;2023-01-29T11:46:12;-24010.13;;;6.92;100.00
7105;BME280;3594;42.152;24.714;2023-01-29T11:48:43;-24014.09;;;7.06;100.00
7105;BME280;3594;42.152;24.714;2023-01-29T11:51:19;-24003.44;;;6.68;100.00
7105;BME280;3594;42.152;24.714;2023-01-29T11:53:50;-24007.69;;;6.83;100.00
7105;BME280;3594;42.152;24.714;2023-01-29T11:56:27;-24016.78;;;7.16;100.00
7105;BME280;3594;42.152;24.714;2023-01-29T11:58:54;-24015.66;;;7.12;100.00
7105;BME280;3594;42.152;24.714;2023-01-29T12:01:37;-24006.84;;;6.80;100.00
7105;BME280;3594;42.152;24.714;2023-01-29T12:04:21;-24004.16;;;6.71;100.00
7105;BME280;3594;42.152;24.714;2023-01-29T12:06:48;-24005.44;;;6.75;100.00
7105;BME280;3594;42.152;24.714;2023-01-29T12:09:21;-24010.81;;;6.94;100.00
7105;BME280;3594;42.152;24.714;2023-01-29T12:11:48;-24005.00;;;6.74;100.00
7105;BME280;3594;42.152;24.714;2023-01-29T12:14:27;-24013.94;;;7.05;100.00
7105;BME280;3594;42.152;24.714;2023-01-29T12:16:55;-24013.09;;;7.02;100.00
7105;BME280;3594;42.152;24.714;2023-01-29T12:22:21;-24012.81;;;7.01;100.00
7105;BME280;3594;42.152;24.714;2023-01-29T12:25:20;-24013.09;;;7.02;100.00
7105;BME280;3594;42.152;24.714;2023-01-29T12:30:22;-24010.41;;;6.93;100.00
7105;BME280;3594;42.152;24.714;2023-01-29T12:33:00;-24009.97;;;6.91;100.00
7105;BME280;3594;42.152;24.714;2023-01-29T12:35:40;-23999.03;;;6.52;100.00
7105;BME280;3594;42.152;24.714;2023-01-29T12:38:18;-24002.59;;;6.65;100.00
7105;BME280;3594;42.152;24.714;2023-01-29T12:40:59;-24011.09;;;6.95;100.00
7105;BME280;3594;42.152;24.714;2023-01-29T12:43:34;-24000.75;;;6.58;100.00
7105;BME280;3594;42.152;24.714;2023-01-29T12:46:07;-24003.72;;;6.69;100.00
7105;BME280;3594;42.152;24.714;2023-01-29T12:48:37;-24008.13;;;6.85;100.00
7105;BME280;3594;42.152;24.714;2023-01-29T12:51:08;-24002.31;;;6.64;100.00
7105;BME280;3594;42.152;24.714;2023-01-29T12:53:39;-24010.41;;;6.93;100.00
7105;BME280;3594;42.152;24.714;2023-01-29T12:56:35;-24009.53;;;6.90;100.00
7105;BME280;3594;42.152;24.714;2023-01-29T12:59:16;-24003.16;;;6.67;100.00
7105;BME280;3594;42.152;24.714;2023-01-29T13:01:49;-24009.53;;;6.90;100.00
7105;BME280;3594;42.152;24.714;2023-01-29T13:04:42;-24014.66;;;7.08;100.00
7105;BME280;3594;42.152;24.714;2023-01-29T13:07:23;-24017.91;;;7.20;100.00
7105;BME280;3594;42.152;24.714;2023-01-29T13:09:53;-24017.78;;;7.19;100.00
7105;BME280;3594;42.152;24.714;2023-01-29T13:12:21;-24011.09;;;6.95;100.00
7105;BME280;3594;42.152;24.714;2023-01-29T13:14:55;-24014.66;;;7.08;100.00
7105;BME280;3594;42.152;24.714;2023-01-29T13:20:28;-24010.25;;;6.92;100.00
7105;BME280;3594;42.152;24.714;2023-01-29T13:22:57;-24002.88;;;6.66;100.00
7105;BME280;3594;42.152;24.714;2023-01-29T13:25:24;-24012.53;;;7.00;100.00
7105;BME280;3594;42.152;24.714;2023-01-29T13:27:49;-24010.81;;;6.94;100.00
7105;BME280;3594;42.152;24.714;2023-01-29T13:30:32;-24006.00;;;6.77;100.00
7105;BME280;3594;42.152;24.714;2023-01-29T13:33:02;-24001.47;;;6.61;100.00
7105;BME280;3594;42.152;24.714;2023-01-29T13:35:35;-23993.78;;;6.34;100.00
7105;BME280;3594;42.152;24.714;2023-01-29T13:38:03;-23988.53;;;6.15;100.00
7105;BME280;3594;42.152;24.714;2023-01-29T13:40:30;-23988.41;;;6.14;100.00
7105;BME280;3594;42.152;24.714;2023-01-29T13:42:59;-24001.03;;;6.59;100.00
7105;BME280;3594;42.152;24.714;2023-01-29T13:45:44;-23999.31;;;6.53;100.00
7105;BME280;3594;42.152;24.714;2023-01-29T13:48:30;-23987.69;;;6.12;100.00
7105;BME280;3594;42.152;24.714;2023-01-29T13:51:00;-23982.16;;;5.92;100.00
7105;BME280;3594;42.152;24.714;2023-01-29T13:53:39;-23996.22;;;6.42;100.00
7105;BME280;3594;42.152;24.714;2023-01-29T13:58:54;-23986.41;;;6.07;100.00
7105;BME280;3594;42.152;24.714;2023-01-29T14:06:53;-23992.78;;;6.30;100.00
7105;BME280;3594;42.152;24.714;2023-01-29T14:12:01;-23994.78;;;6.37;100.00
7105;BME280;3594;42.152;24.714;2023-01-29T14:17:18;-23992.78;;;6.30;100.00
7105;BME280;3594;42.152;24.714;2023-01-29T14:19:53;-23991.94;;;6.27;100.00
7105;BME280;3594;42.152;24.714;2023-01-29T14:22:24;-23990.25;;;6.21;100.00
7105;BME280;3594;42.152;24.714;2023-01-29T14:24:57;-23984.84;;;6.02;100.00
7105;BME280;3594;42.152;24.714;2023-01-29T14:27:24;-23991.53;;;6.26;100.00
7105;BME280;3594;42.152;24.714;2023-01-29T14:29:50;-23984.69;;;6.01;100.00
7105;BME280;3594;42.152;24.714;2023-01-29T14:32:22;-23981.28;;;5.89;100.00
7105;BME280;3594;42.152;24.714;2023-01-29T14:34:58;-23993.78;;;6.34;100.00
7105;BME280;3594;42.152;24.714;2023-01-29T14:37:30;-23992.94;;;6.31;100.00
7105;BME280;3594;42.152;24.714;2023-01-29T14:42:38;-23988.69;;;6.15;100.00
7105;BME280;3594;42.152;24.714;2023-01-29T14:47:54;-23977.44;;;5.75;100.00
7105;BME280;3594;42.152;24.714;2023-01-29T14:56:02;-23982.84;;;5.95;100.00
7105;BME280;3594;42.152;24.714;2023-01-29T14:58:41;-23989.38;;;6.18;100.00
7105;BME280;3594;42.152;24.714;2023-01-29T15:01:35;-23985.41;;;6.04;100.00
7105;BME280;3594;42.152;24.714;2023-01-29T15:04:25;-23981.28;;;5.89;100.00
7105;BME280;3594;42.152;24.714;2023-01-29T15:06:58;-23981.00;;;5.88;100.00
7105;BME280;3594;42.152;24.714;2023-01-29T15:12:24;-23971.06;;;5.53;100.00
7105;BME280;3594;42.152;24.714;2023-01-29T15:22:54;-23973.91;;;5.63;100.00
7105;BME280;3594;42.152;24.714;2023-01-29T15:25:20;-23977.59;;;5.76;100.00
7105;BME280;3594;42.152;24.714;2023-01-29T15:27:46;-23972.06;;;5.56;100.00
7105;BME280;3594;42.152;24.714;2023-01-29T15:30:21;-23967.22;;;5.39;100.00